createdAt,value
2017-10-27T00:00:55.637Z,97.30
2017-10-27T00:01:59.418Z,97.30
2017-10-27T00:03:01.896Z,97.30
2017-10-27T00:04:04.375Z,97.40
2017-10-27T00:05:06.877Z,97.70
2017-10-27T00:06:09.335Z,97.40
2017-10-27T00:07:11.804Z,97.40
2017-10-27T00:08:15.056Z,97.40
2017-10-27T00:09:18.305Z,97.50
2017-10-27T00:10:21.558Z,97.40
2017-10-27T00:11:24.024Z,97.40
2017-10-27T00:12:26.484Z,97.50
2017-10-27T00:13:29.719Z,97.50
2017-10-27T00:14:32.964Z,97.40
2017-10-27T00:15:35.516Z,97.40
2017-10-27T00:16:37.974Z,97.70
2017-10-27T00:17:41.128Z,97.40
2017-10-27T00:18:43.610Z,97.30
2017-10-27T00:19:47.625Z,97.40
2017-10-27T00:20:50.191Z,97.40
2017-10-27T00:21:52.662Z,97.30
2017-10-27T00:22:55.164Z,97.30
2017-10-27T00:23:57.672Z,97.20
2017-10-27T00:25:00.330Z,97.30
2017-10-27T00:26:02.799Z,97.40
2017-10-27T00:27:06.042Z,97.20
2017-10-27T00:28:08.520Z,97.10
2017-10-27T00:29:11.027Z,97.20
2017-10-27T00:30:13.529Z,97.10
2017-10-27T00:31:15.994Z,97.20
2017-10-27T00:32:18.478Z,97.30
2017-10-27T00:33:21.734Z,97.20
2017-10-27T00:34:25.147Z,97.30
2017-10-27T00:35:27.627Z,97.30
2017-10-27T00:36:30.076Z,97.30
2017-10-27T00:37:32.540Z,97.30
2017-10-27T00:38:35.797Z,97.60
2017-10-27T00:39:38.287Z,97.40
2017-10-27T00:40:40.784Z,97.40
2017-10-27T00:41:43.251Z,97.60
2017-10-27T00:42:46.543Z,97.70
2017-10-27T00:43:49.118Z,97.40
2017-10-27T00:44:52.383Z,97.40
2017-10-27T00:45:54.852Z,97.40
2017-10-27T00:46:57.326Z,97.40
2017-10-27T00:47:59.822Z,97.40
2017-10-27T00:49:02.316Z,97.40
2017-10-27T00:50:04.810Z,97.50
2017-10-27T00:51:07.273Z,97.40
2017-10-27T00:52:09.749Z,97.50
2017-10-27T00:53:12.971Z,97.50
2017-10-27T00:54:15.505Z,97.50
2017-10-27T00:55:18.748Z,97.70
2017-10-27T00:56:21.978Z,97.50
2017-10-27T00:57:24.591Z,97.40
2017-10-27T00:58:27.080Z,97.40
2017-10-27T00:59:29.590Z,97.40
2017-10-27T01:00:32.883Z,97.70
2017-10-27T01:01:36.887Z,97.20
2017-10-27T01:02:39.347Z,97.20
2017-10-27T01:03:42.015Z,97.20
2017-10-27T01:04:44.484Z,97.30
2017-10-27T01:05:46.979Z,97.40
2017-10-27T01:06:50.211Z,97.50
2017-10-27T01:07:53.466Z,97.40
2017-10-27T01:08:56.724Z,97.40
2017-10-27T01:09:59.183Z,97.40
2017-10-27T01:11:01.669Z,97.30
2017-10-27T01:12:04.151Z,97.30
2017-10-27T01:13:06.809Z,97.40
2017-10-27T01:14:10.068Z,97.30
2017-10-27T01:15:13.432Z,97.20
2017-10-27T01:16:16.030Z,97.30
2017-10-27T01:17:19.314Z,97.20
2017-10-27T01:18:21.836Z,97.20
2017-10-27T01:19:24.336Z,97.20
2017-10-27T01:20:26.826Z,97.10
2017-10-27T01:21:29.344Z,97.20
2017-10-27T01:22:31.829Z,97.10
2017-10-27T01:23:34.315Z,97.20
2017-10-27T01:24:37.686Z,97.30
2017-10-27T01:25:40.195Z,97.20
2017-10-27T01:26:43.403Z,97.30
2017-10-27T01:27:45.884Z,97.30
2017-10-27T01:28:48.348Z,97.30
2017-10-27T01:29:50.934Z,97.30
2017-10-27T01:30:53.418Z,97.30
2017-10-27T01:31:55.974Z,97.20
2017-10-27T01:32:58.446Z,96.90
2017-10-27T01:34:00.915Z,97.10
2017-10-27T01:35:04.178Z,97.10
2017-10-27T01:36:06.672Z,97.10
2017-10-27T01:37:09.161Z,97.10
2017-10-27T01:38:11.632Z,97.20
2017-10-27T01:39:14.886Z,97.10
2017-10-27T01:40:17.383Z,97.10
2017-10-27T01:41:20.615Z,97.30
2017-10-27T01:42:23.086Z,97.00
2017-10-27T01:43:25.593Z,97.00
2017-10-27T01:44:28.828Z,97.00
2017-10-27T01:45:32.101Z,97.00
2017-10-27T01:46:34.575Z,97.00
2017-10-27T01:47:37.038Z,96.90
2017-10-27T01:48:39.506Z,96.70
2017-10-27T01:49:42.011Z,96.70
2017-10-27T01:50:44.718Z,96.70
2017-10-27T01:51:47.184Z,96.60
2017-10-27T01:52:49.669Z,96.60
2017-10-27T01:53:52.139Z,96.70
2017-10-27T01:54:54.939Z,96.70
2017-10-27T01:55:57.443Z,96.60
2017-10-27T01:57:00.687Z,96.90
2017-10-27T01:58:03.154Z,96.60
2017-10-27T01:59:05.611Z,96.40
2017-10-27T02:00:08.848Z,96.40
2017-10-27T02:01:11.331Z,96.20
2017-10-27T02:02:13.804Z,96.40
2017-10-27T02:04:24.059Z,96.20
2017-10-27T02:05:26.635Z,96.30
2017-10-27T02:06:29.107Z,96.20
2017-10-27T02:07:31.572Z,96.20
2017-10-27T02:08:34.050Z,96.10
2017-10-27T02:09:36.525Z,96.10
2017-10-27T02:10:39.019Z,96.10
2017-10-27T02:11:41.585Z,96.20
2017-10-27T02:12:44.071Z,96.20
2017-10-27T02:13:46.541Z,96.30
2017-10-27T02:14:49.014Z,96.30
2017-10-27T02:15:51.491Z,96.30
2017-10-27T02:16:53.989Z,96.40
2017-10-27T02:17:57.249Z,96.40
2017-10-27T02:18:59.722Z,96.30
2017-10-27T02:20:02.191Z,96.40
2017-10-27T02:21:04.677Z,96.70
2017-10-27T02:22:07.147Z,96.30
2017-10-27T02:23:09.613Z,96.20
2017-10-27T02:24:12.078Z,96.20
2017-10-27T02:25:15.331Z,96.30
2017-10-27T02:26:17.815Z,96.20
2017-10-27T02:27:20.279Z,96.20
2017-10-27T02:28:23.507Z,96.20
2017-10-27T02:29:26.742Z,96.30
2017-10-27T02:30:29.231Z,96.20
2017-10-27T02:31:31.731Z,96.30
2017-10-27T02:32:34.196Z,96.30
2017-10-27T02:33:36.726Z,96.10
2017-10-27T02:34:39.205Z,96.10
2017-10-27T02:35:41.690Z,95.90
2017-10-27T02:36:44.248Z,95.90
2017-10-27T02:37:46.730Z,95.90
2017-10-27T02:38:49.280Z,96.00
2017-10-27T02:39:52.514Z,96.10
2017-10-27T02:40:55.071Z,96.10
2017-10-27T02:41:57.543Z,96.10
2017-10-27T02:43:01.798Z,96.00
2017-10-27T02:44:04.264Z,96.00
2017-10-27T02:45:07.544Z,95.90
2017-10-27T02:46:10.128Z,95.90
2017-10-27T02:47:13.370Z,95.70
2017-10-27T02:48:16.592Z,95.70
2017-10-27T02:49:19.060Z,95.70
2017-10-27T02:50:21.542Z,95.70
2017-10-27T02:51:24.046Z,95.70
2017-10-27T02:52:26.541Z,95.70
2017-10-27T02:53:29.006Z,95.80
2017-10-27T02:54:31.465Z,95.80
2017-10-27T02:55:34.730Z,95.60
2017-10-27T02:56:37.224Z,95.60
2017-10-27T02:57:39.690Z,95.60
2017-10-27T02:58:42.174Z,95.70
2017-10-27T02:59:44.651Z,95.70
2017-10-27T03:00:47.139Z,95.70
2017-10-27T03:01:50.410Z,95.70
2017-10-27T03:02:52.956Z,95.70
2017-10-27T03:03:55.447Z,95.80
2017-10-27T03:04:57.927Z,95.80
2017-10-27T03:06:00.429Z,95.70
2017-10-27T03:07:02.920Z,95.70
2017-10-27T03:08:05.399Z,95.70
2017-10-27T03:09:07.870Z,95.70
2017-10-27T03:10:10.383Z,95.90
2017-10-27T03:11:13.614Z,96.10
2017-10-27T03:12:16.880Z,96.10
2017-10-27T03:13:19.371Z,96.10
2017-10-27T03:14:21.858Z,96.40
2017-10-27T03:15:24.322Z,96.50
2017-10-27T03:16:26.786Z,96.50
2017-10-27T03:17:29.259Z,96.80
2017-10-27T03:18:31.714Z,96.70
2017-10-27T03:19:34.986Z,96.80
2017-10-27T03:20:37.452Z,96.70
2017-10-27T03:21:39.919Z,96.90
2017-10-27T03:22:42.407Z,97.00
2017-10-27T03:23:44.875Z,96.90
2017-10-27T03:24:47.368Z,96.80
2017-10-27T03:25:49.838Z,96.80
2017-10-27T03:26:52.300Z,96.70
2017-10-27T03:27:56.274Z,97.00
2017-10-27T03:28:58.738Z,97.00
2017-10-27T03:30:01.208Z,96.80
2017-10-27T03:31:03.696Z,96.70
2017-10-27T03:32:06.227Z,96.80
2017-10-27T03:33:08.691Z,96.90
2017-10-27T03:34:11.154Z,96.90
2017-10-27T03:35:13.634Z,96.90
2017-10-27T03:36:16.117Z,96.60
2017-10-27T03:37:18.581Z,96.60
2017-10-27T03:38:21.067Z,96.60
2017-10-27T03:39:23.623Z,96.70
2017-10-27T03:40:26.111Z,96.90
2017-10-27T03:41:28.580Z,96.60
2017-10-27T03:42:31.059Z,96.50
2017-10-27T03:43:33.590Z,96.60
2017-10-27T03:44:36.121Z,96.60
2017-10-27T03:45:38.699Z,96.60
2017-10-27T03:46:41.198Z,96.50
2017-10-27T03:47:43.699Z,96.70
2017-10-27T03:48:46.201Z,96.70
2017-10-27T03:49:48.727Z,96.70
2017-10-27T03:50:51.978Z,96.70
2017-10-27T03:51:54.467Z,96.70
2017-10-27T03:52:56.946Z,96.70
2017-10-27T03:53:59.413Z,96.60
2017-10-27T03:55:01.880Z,96.60
2017-10-27T03:56:04.390Z,96.90
2017-10-27T03:57:07.610Z,96.60
2017-10-27T03:58:10.070Z,96.50
2017-10-27T03:59:12.547Z,96.80
2017-10-27T04:00:15.016Z,96.30
2017-10-27T04:01:17.510Z,96.40
2017-10-27T04:02:19.987Z,96.40
2017-10-27T04:03:22.467Z,96.50
2017-10-27T04:04:25.038Z,96.50
2017-10-27T04:05:27.512Z,96.40
2017-10-27T04:06:30.007Z,96.30
2017-10-27T04:07:32.617Z,96.40
2017-10-27T04:08:35.082Z,96.60
2017-10-27T04:09:37.568Z,96.50
2017-10-27T04:10:40.028Z,96.60
2017-10-27T04:11:42.523Z,96.40
2017-10-27T04:12:44.994Z,96.40
2017-10-27T04:13:48.246Z,96.20
2017-10-27T04:14:51.469Z,96.30
2017-10-27T04:15:54.785Z,96.10
2017-10-27T04:16:57.306Z,96.00
2017-10-27T04:17:59.779Z,96.10
2017-10-27T04:19:02.998Z,96.40
2017-10-27T04:20:05.595Z,96.40
2017-10-27T04:21:08.058Z,96.10
2017-10-27T04:22:10.546Z,96.00
2017-10-27T04:23:13.011Z,96.10
2017-10-27T04:24:16.314Z,96.10
2017-10-27T04:25:18.766Z,96.10
2017-10-27T04:26:21.237Z,96.10
2017-10-27T04:27:23.741Z,96.00
2017-10-27T04:28:26.973Z,96.00
2017-10-27T04:29:29.453Z,96.00
2017-10-27T04:30:31.930Z,96.40
2017-10-27T04:31:35.155Z,96.20
2017-10-27T04:32:37.651Z,96.00
2017-10-27T04:33:40.136Z,96.00
2017-10-27T04:34:43.392Z,96.10
2017-10-27T04:35:45.884Z,96.10
2017-10-27T04:36:48.339Z,96.20
2017-10-27T04:37:50.836Z,96.10
2017-10-27T04:38:53.634Z,96.20
2017-10-27T04:39:56.131Z,96.20
2017-10-27T04:40:58.622Z,96.10
2017-10-27T04:42:01.865Z,96.10
2017-10-27T04:43:04.341Z,96.10
2017-10-27T04:44:06.813Z,96.10
2017-10-27T04:45:09.263Z,96.20
2017-10-27T04:46:11.776Z,96.10
2017-10-27T04:47:15.023Z,96.00
2017-10-27T04:48:17.503Z,96.00
2017-10-27T04:49:19.964Z,96.00
2017-10-27T04:50:23.184Z,96.00
2017-10-27T04:51:25.765Z,96.00
2017-10-27T04:52:28.228Z,96.00
2017-10-27T04:53:30.809Z,96.00
2017-10-27T04:54:33.295Z,96.00
2017-10-27T04:55:35.818Z,96.00
2017-10-27T04:56:38.377Z,96.00
2017-10-27T04:57:41.643Z,96.20
2017-10-27T04:58:44.172Z,96.20
2017-10-27T04:59:46.645Z,96.00
2017-10-27T05:00:49.102Z,96.00
2017-10-27T05:01:51.570Z,96.00
2017-10-27T05:02:54.043Z,96.10
2017-10-27T05:03:56.566Z,96.10
2017-10-27T05:04:59.861Z,96.20
2017-10-27T05:06:02.351Z,96.20
2017-10-27T05:07:04.823Z,96.00
2017-10-27T05:08:07.287Z,95.90
2017-10-27T05:09:09.889Z,95.90
2017-10-27T05:10:12.361Z,95.90
2017-10-27T05:11:14.822Z,96.20
2017-10-27T05:12:17.305Z,96.00
2017-10-27T05:13:19.775Z,96.00
2017-10-27T05:14:22.262Z,96.00
2017-10-27T05:15:24.735Z,96.10
2017-10-27T05:16:32.876Z,96.00
2017-10-27T05:17:41.074Z,95.90
2017-10-27T05:18:49.334Z,95.70
2017-10-27T05:19:57.590Z,95.90
2017-10-27T05:21:05.734Z,95.90
2017-10-27T05:22:14.636Z,96.00
2017-10-27T05:23:22.936Z,96.00
2017-10-27T05:24:25.397Z,96.00
2017-10-27T05:25:27.861Z,96.00
2017-10-27T05:26:30.328Z,96.00
2017-10-27T05:27:33.615Z,95.90
2017-10-27T05:28:36.078Z,95.90
2017-10-27T05:29:38.542Z,96.00
2017-10-27T05:30:41.035Z,96.10
2017-10-27T05:31:44.267Z,96.30
2017-10-27T05:32:46.752Z,96.20
2017-10-27T05:33:49.235Z,96.40
2017-10-27T05:34:52.466Z,96.50
2017-10-27T05:35:54.959Z,96.50
2017-10-27T05:36:57.434Z,96.70
2017-10-27T05:38:00.682Z,97.00
2017-10-27T05:39:03.913Z,97.00
2017-10-27T05:40:07.139Z,97.10
2017-10-27T05:41:09.639Z,97.10
2017-10-27T05:42:12.100Z,97.20
2017-10-27T05:43:15.350Z,97.40
2017-10-27T05:44:18.595Z,97.40
2017-10-27T05:45:21.826Z,97.60
2017-10-27T05:46:25.059Z,97.60
2017-10-27T05:47:28.316Z,97.70
2017-10-27T05:48:31.581Z,97.80
2017-10-27T05:49:34.071Z,97.80
2017-10-27T05:50:36.576Z,97.80
2017-10-27T05:51:39.054Z,97.80
2017-10-27T05:52:41.527Z,97.90
2017-10-27T05:53:44.030Z,97.90
2017-10-27T05:54:46.490Z,97.90
2017-10-27T05:55:49.761Z,98.20
2017-10-27T05:56:53.011Z,98.00
2017-10-27T05:57:55.471Z,98.00
2017-10-27T05:58:57.990Z,98.10
2017-10-27T06:00:00.451Z,98.10
2017-10-27T06:01:02.916Z,98.30
2017-10-27T06:02:05.395Z,98.00
2017-10-27T06:03:07.889Z,98.00
2017-10-27T06:04:10.399Z,98.40
2017-10-27T06:05:12.870Z,98.10
2017-10-27T06:06:15.469Z,98.10
2017-10-27T06:07:17.967Z,98.00
2017-10-27T06:08:20.443Z,98.00
2017-10-27T06:09:22.978Z,98.00
2017-10-27T06:10:25.469Z,98.00
2017-10-27T06:11:27.963Z,98.00
2017-10-27T06:12:30.428Z,97.90
2017-10-27T06:13:32.898Z,98.00
2017-10-27T06:14:36.139Z,97.90
2017-10-27T06:15:39.406Z,97.90
2017-10-27T06:16:41.888Z,97.90
2017-10-27T06:17:44.389Z,98.00
2017-10-27T06:18:46.858Z,98.00
2017-10-27T06:19:50.143Z,97.90
2017-10-27T06:20:52.657Z,97.90
2017-10-27T06:21:55.152Z,97.80
2017-10-27T06:22:58.366Z,97.80
2017-10-27T06:24:00.832Z,97.80
2017-10-27T06:25:03.366Z,97.90
2017-10-27T06:26:05.844Z,98.00
2017-10-27T06:28:12.119Z,98.00
2017-10-27T06:29:14.595Z,98.00
2017-10-27T06:30:17.095Z,98.10
2017-10-27T06:31:20.348Z,97.90
2017-10-27T06:32:22.811Z,97.90
2017-10-27T06:33:25.278Z,97.90
2017-10-27T06:34:28.511Z,97.80
2017-10-27T06:35:31.021Z,97.80
2017-10-27T06:36:34.251Z,97.90
2017-10-27T06:37:36.711Z,97.90
2017-10-27T06:38:39.174Z,98.10
2017-10-27T06:39:41.646Z,97.60
2017-10-27T06:40:44.145Z,97.30
2017-10-27T06:41:46.637Z,97.30
2017-10-27T06:42:49.880Z,97.50
2017-10-27T06:43:52.365Z,97.50
2017-10-27T06:44:54.903Z,97.50
2017-10-27T06:45:57.433Z,97.50
2017-10-27T06:46:59.909Z,97.50
2017-10-27T06:48:02.378Z,97.60
2017-10-27T06:49:04.867Z,97.60
2017-10-27T06:50:07.354Z,97.90
2017-10-27T06:51:09.903Z,97.50
2017-10-27T06:52:12.359Z,97.60
2017-10-27T06:53:14.839Z,97.40
2017-10-27T06:54:17.298Z,97.50
2017-10-27T06:55:19.800Z,97.40
2017-10-27T06:56:22.298Z,97.50
2017-10-27T06:57:25.518Z,97.50
2017-10-27T06:58:28.078Z,97.50
2017-10-27T06:59:31.260Z,97.90
2017-10-27T07:00:33.873Z,97.70
2017-10-27T07:01:36.500Z,97.60
2017-10-27T07:02:38.987Z,97.80
2017-10-27T07:03:42.224Z,98.00
2017-10-27T07:04:45.475Z,98.10
2017-10-27T07:05:47.975Z,98.00
2017-10-27T07:06:50.465Z,98.10
2017-10-27T07:07:52.940Z,98.20
2017-10-27T07:08:56.239Z,98.10
2017-10-27T07:09:58.715Z,98.10
2017-10-27T07:11:01.964Z,98.20
2017-10-27T07:12:05.220Z,98.30
2017-10-27T07:13:07.691Z,98.30
2017-10-27T07:14:10.220Z,98.30
2017-10-27T07:15:13.445Z,98.20
2017-10-27T07:16:15.958Z,98.50
2017-10-27T07:17:18.442Z,98.10
2017-10-27T07:18:21.695Z,97.90
2017-10-27T07:19:24.946Z,97.90
2017-10-27T07:20:27.410Z,97.90
2017-10-27T07:21:29.897Z,98.00
2017-10-27T07:22:32.375Z,98.00
2017-10-27T07:23:34.839Z,97.70
2017-10-27T07:24:37.364Z,97.60
2017-10-27T07:25:40.608Z,98.00
2017-10-27T07:26:43.103Z,98.00
2017-10-27T07:27:45.583Z,98.00
2017-10-27T07:28:48.047Z,97.90
2017-10-27T07:29:50.548Z,98.20
2017-10-27T07:30:53.007Z,97.40
2017-10-27T07:31:56.281Z,96.90
2017-10-27T07:32:58.768Z,96.90
2017-10-27T07:34:01.251Z,96.50
2017-10-27T07:35:03.706Z,96.40
2017-10-27T07:36:06.171Z,96.60
2017-10-27T07:37:08.686Z,96.60
2017-10-27T07:38:11.956Z,96.70
2017-10-27T07:39:14.429Z,96.70
2017-10-27T07:40:16.913Z,96.20
2017-10-27T07:41:19.410Z,96.40
2017-10-27T07:42:22.680Z,96.00
2017-10-27T07:43:25.194Z,96.00
2017-10-27T07:44:27.708Z,95.80
2017-10-27T07:45:30.183Z,95.80
2017-10-27T07:46:32.706Z,95.80
2017-10-27T07:47:35.218Z,95.50
2017-10-27T07:48:37.680Z,95.60
2017-10-27T07:49:40.907Z,95.50
2017-10-27T07:50:43.378Z,95.40
2017-10-27T07:51:45.851Z,95.60
2017-10-27T07:52:48.346Z,95.80
2017-10-27T07:53:50.844Z,95.70
2017-10-27T07:54:54.087Z,95.20
2017-10-27T07:55:56.570Z,95.20
2017-10-27T07:56:59.046Z,95.30
2017-10-27T07:58:01.530Z,95.20
2017-10-27T07:59:03.990Z,95.10
2017-10-27T08:00:07.252Z,95.30
2017-10-27T08:01:09.731Z,95.30
2017-10-27T08:02:12.198Z,95.10
2017-10-27T08:03:14.705Z,95.30
2017-10-27T08:04:17.956Z,95.10
2017-10-27T08:05:20.491Z,95.00
2017-10-27T08:06:22.969Z,95.30
2017-10-27T08:07:25.442Z,95.30
2017-10-27T08:08:27.906Z,94.90
2017-10-27T08:09:30.385Z,94.90
2017-10-27T08:10:32.871Z,95.10
2017-10-27T08:11:35.350Z,94.80
2017-10-27T08:12:37.862Z,95.00
2017-10-27T08:13:40.343Z,94.80
2017-10-27T08:14:42.804Z,94.80
2017-10-27T08:15:45.276Z,94.50
2017-10-27T08:16:47.754Z,94.60
2017-10-27T08:17:50.246Z,94.70
2017-10-27T08:18:52.711Z,94.90
2017-10-27T08:19:55.199Z,95.00
2017-10-27T08:20:57.689Z,95.10
2017-10-27T08:22:00.174Z,94.70
2017-10-27T08:23:02.657Z,94.60
2017-10-27T08:24:05.154Z,94.60
2017-10-27T08:25:07.646Z,94.90
2017-10-27T08:26:10.112Z,94.70
2017-10-27T08:27:12.583Z,94.60
2017-10-27T08:28:15.843Z,94.80
2017-10-27T08:29:18.350Z,94.80
2017-10-27T08:30:20.844Z,94.90
2017-10-27T08:31:23.371Z,94.40
2017-10-27T08:32:25.871Z,94.40
2017-10-27T08:33:28.368Z,94.20
2017-10-27T08:34:31.606Z,94.40
2017-10-27T08:35:34.839Z,94.60
2017-10-27T08:36:38.110Z,95.10
2017-10-27T08:37:40.614Z,94.80
2017-10-27T08:38:43.852Z,94.60
2017-10-27T08:39:47.075Z,95.20
2017-10-27T08:40:49.536Z,94.80
2017-10-27T08:41:52.886Z,94.80
2017-10-27T08:42:55.383Z,94.40
2017-10-27T08:43:57.917Z,94.40
2017-10-27T08:45:01.200Z,94.70
2017-10-27T08:46:03.708Z,94.60
2017-10-27T08:47:06.191Z,94.60
2017-10-27T08:48:08.699Z,94.60
2017-10-27T08:49:11.190Z,94.40
2017-10-27T08:50:13.663Z,94.40
2017-10-27T08:51:16.111Z,93.80
2017-10-27T08:52:19.373Z,93.70
2017-10-27T08:53:21.822Z,93.70
2017-10-27T08:54:25.139Z,93.90
2017-10-27T08:55:27.645Z,93.60
2017-10-27T08:56:30.885Z,93.30
2017-10-27T08:57:34.157Z,93.80
2017-10-27T08:58:36.659Z,93.80
2017-10-27T08:59:39.878Z,93.50
2017-10-27T09:00:42.347Z,93.50
2017-10-27T09:01:44.813Z,93.40
2017-10-27T09:02:47.266Z,93.50
2017-10-27T09:03:49.767Z,93.50
2017-10-27T09:04:52.241Z,93.40
2017-10-27T09:05:54.720Z,93.20
2017-10-27T09:06:57.187Z,93.50
2017-10-27T09:07:59.660Z,93.60
2017-10-27T09:09:02.955Z,93.60
2017-10-27T09:10:05.450Z,93.60
2017-10-27T09:11:08.016Z,93.80
2017-10-27T09:12:10.484Z,93.90
2017-10-27T09:13:12.964Z,93.90
2017-10-27T09:14:15.463Z,93.80
2017-10-27T09:15:18.732Z,94.50
2017-10-27T09:16:21.232Z,94.50
2017-10-27T09:17:24.557Z,95.60
2017-10-27T09:18:27.036Z,95.60
2017-10-27T09:19:29.586Z,95.70
2017-10-27T09:20:32.082Z,95.40
2017-10-27T09:21:34.579Z,95.80
2017-10-27T09:22:37.820Z,95.70
2017-10-27T09:23:40.311Z,95.70
2017-10-27T09:24:42.895Z,95.70
2017-10-27T09:25:45.392Z,95.30
2017-10-27T09:26:47.890Z,95.60
2017-10-27T09:27:50.466Z,95.30
2017-10-27T09:28:52.927Z,94.40
2017-10-27T09:29:55.418Z,94.60
2017-10-27T09:30:58.675Z,94.60
2017-10-27T09:32:01.170Z,94.60
2017-10-27T09:33:04.439Z,94.90
2017-10-27T09:34:06.937Z,94.90
2017-10-27T09:35:10.167Z,95.60
2017-10-27T09:36:12.672Z,95.60
2017-10-27T09:37:15.174Z,95.90
2017-10-27T09:38:17.639Z,96.20
2017-10-27T09:39:20.108Z,96.30
2017-10-27T09:40:22.574Z,96.40
2017-10-27T09:41:25.057Z,96.80
2017-10-27T09:42:27.567Z,96.90
2017-10-27T09:43:30.149Z,97.00
2017-10-27T09:44:32.665Z,97.30
2017-10-27T09:45:35.130Z,97.70
2017-10-27T09:46:38.373Z,98.00
2017-10-27T09:47:41.648Z,98.20
2017-10-27T09:48:44.127Z,98.20
2017-10-27T09:49:46.591Z,98.70
2017-10-27T09:50:49.055Z,98.60
2017-10-27T09:51:51.520Z,98.50
2017-10-27T09:52:54.789Z,98.80
2017-10-27T09:53:57.304Z,98.50
2017-10-27T09:54:59.752Z,98.60
2017-10-27T09:56:02.236Z,98.60
2017-10-27T09:57:05.513Z,98.90
2017-10-27T09:58:07.978Z,98.90
2017-10-27T09:59:10.486Z,99.10
2017-10-27T10:00:13.116Z,99.10
2017-10-27T10:01:15.708Z,99.00
2017-10-27T10:02:18.245Z,99.20
2017-10-27T10:03:20.841Z,99.30
2017-10-27T10:04:23.452Z,99.10
2017-10-27T10:05:26.837Z,98.80
2017-10-27T10:06:29.467Z,98.80
2017-10-27T10:07:32.064Z,98.60
2017-10-27T10:08:34.550Z,98.40
2017-10-27T10:09:37.819Z,98.50
2017-10-27T10:10:40.282Z,98.50
2017-10-27T10:11:42.752Z,98.20
2017-10-27T10:12:45.227Z,97.70
2017-10-27T10:13:47.707Z,97.90
2017-10-27T10:14:50.167Z,98.00
2017-10-27T10:15:52.635Z,97.90
2017-10-27T10:16:55.090Z,97.90
2017-10-27T10:17:57.578Z,97.70
2017-10-27T10:19:00.811Z,97.70
2017-10-27T10:20:03.291Z,97.70
2017-10-27T10:21:06.531Z,97.70
2017-10-27T10:22:09.764Z,97.90
2017-10-27T10:23:12.231Z,97.90
2017-10-27T10:24:14.723Z,97.80
2017-10-27T10:25:17.953Z,98.30
2017-10-27T10:26:20.416Z,98.30
2017-10-27T10:27:22.928Z,97.90
2017-10-27T10:28:26.863Z,98.10
2017-10-27T10:29:29.355Z,98.10
2017-10-27T10:30:31.822Z,97.90
2017-10-27T10:31:35.047Z,97.90
2017-10-27T10:32:37.520Z,97.90
2017-10-27T10:33:39.986Z,98.10
2017-10-27T10:34:42.515Z,97.90
2017-10-27T10:35:45.020Z,98.10
2017-10-27T10:36:47.479Z,98.30
2017-10-27T10:37:49.951Z,98.10
2017-10-27T10:38:52.415Z,98.20
2017-10-27T10:39:54.883Z,98.10
2017-10-27T10:40:57.406Z,98.30
2017-10-27T10:42:00.630Z,98.80
2017-10-27T10:43:03.867Z,98.80
2017-10-27T10:44:07.114Z,99.00
2017-10-27T10:45:09.608Z,99.30
2017-10-27T10:46:12.103Z,98.10
2017-10-27T10:47:14.583Z,97.80
2017-10-27T10:48:17.063Z,97.60
2017-10-27T10:49:20.435Z,97.60
2017-10-27T10:50:22.900Z,97.80
2017-10-27T10:51:26.157Z,97.40
2017-10-27T10:52:28.645Z,97.40
2017-10-27T10:53:31.916Z,97.40
2017-10-27T10:54:34.398Z,97.40
2017-10-27T10:55:36.886Z,97.20
2017-10-27T10:56:39.386Z,96.80
2017-10-27T10:57:43.608Z,96.80
2017-10-27T10:58:46.123Z,96.80
2017-10-27T10:59:48.596Z,96.30
2017-10-27T11:00:51.954Z,96.60
2017-10-27T11:01:54.419Z,96.50
2017-10-27T11:02:57.022Z,96.10
2017-10-27T11:03:59.999Z,96.00
2017-10-27T11:05:03.337Z,95.50
2017-10-27T11:06:05.931Z,95.50
2017-10-27T11:07:08.449Z,95.50
2017-10-27T11:08:11.077Z,95.70
2017-10-27T11:09:13.731Z,95.50
2017-10-27T11:10:16.703Z,95.40
2017-10-27T11:11:19.170Z,95.30
2017-10-27T11:12:21.739Z,95.60
2017-10-27T11:13:24.223Z,95.90
2017-10-27T11:14:26.712Z,95.40
2017-10-27T11:15:29.950Z,95.20
2017-10-27T11:16:33.175Z,95.70
2017-10-27T11:17:35.653Z,95.30
2017-10-27T11:18:38.153Z,94.90
2017-10-27T11:19:41.381Z,95.50
2017-10-27T11:20:43.838Z,95.50
2017-10-27T11:21:46.311Z,95.50
2017-10-27T11:22:48.892Z,95.10
2017-10-27T11:23:51.393Z,95.20
2017-10-27T11:24:53.850Z,95.50
2017-10-27T11:25:56.331Z,95.10
2017-10-27T11:26:58.813Z,94.90
2017-10-27T11:28:01.370Z,94.90
2017-10-27T11:29:03.958Z,95.10
2017-10-27T11:30:06.440Z,95.10
2017-10-27T11:31:09.683Z,94.90
2017-10-27T11:32:12.907Z,94.90
2017-10-27T11:33:15.386Z,94.90
2017-10-27T11:34:17.867Z,94.80
2017-10-27T11:35:21.103Z,94.80
2017-10-27T11:36:23.926Z,94.80
2017-10-27T11:37:26.384Z,94.80
2017-10-27T11:38:29.626Z,95.10
2017-10-27T11:39:32.932Z,95.10
2017-10-27T11:40:35.411Z,95.10
2017-10-27T11:41:38.697Z,95.00
2017-10-27T11:42:41.165Z,94.90
2017-10-27T11:43:44.401Z,94.50
2017-10-27T11:44:47.657Z,94.70
2017-10-27T11:45:50.163Z,94.40
2017-10-27T11:46:53.437Z,93.90
2017-10-27T11:47:55.887Z,94.10
2017-10-27T11:48:58.386Z,94.20
2017-10-27T11:50:00.869Z,94.30
2017-10-27T11:51:03.352Z,93.80
2017-10-27T11:52:05.877Z,93.70
2017-10-27T11:53:08.372Z,93.70
2017-10-27T11:54:11.668Z,93.60
2017-10-27T11:55:14.147Z,93.60
2017-10-27T11:56:16.605Z,93.60
2017-10-27T11:57:19.106Z,93.40
2017-10-27T11:58:21.592Z,93.20
2017-10-27T11:59:24.089Z,93.40
2017-10-27T12:00:26.573Z,93.60
2017-10-27T12:01:29.047Z,93.60
2017-10-27T12:02:31.778Z,93.80
2017-10-27T12:03:33.873Z,93.60
2017-10-27T12:04:35.116Z,93.60
2017-10-27T12:05:37.514Z,93.70
2017-10-27T12:06:38.502Z,93.70
2017-10-27T12:07:39.789Z,93.60
2017-10-27T12:08:40.990Z,93.40
2017-10-27T12:09:41.936Z,93.40
2017-10-27T12:10:43.641Z,93.30
2017-10-27T12:11:45.682Z,93.10
2017-10-27T12:12:46.596Z,93.20
2017-10-27T12:13:47.514Z,92.90
2017-10-27T12:14:48.490Z,92.70
2017-10-27T12:15:49.468Z,92.70
2017-10-27T12:16:50.407Z,92.60
2017-10-27T12:17:52.099Z,93.00
2017-10-27T12:18:53.806Z,93.00
2017-10-27T12:19:55.496Z,93.30
2017-10-27T12:20:56.479Z,93.30
2017-10-27T12:21:57.417Z,93.30
2017-10-27T12:22:58.334Z,93.30
2017-10-27T12:23:59.264Z,92.90
2017-10-27T12:25:00.261Z,92.60
2017-10-27T12:26:01.225Z,92.70
2017-10-27T12:27:02.728Z,92.90
2017-10-27T12:28:04.217Z,92.90
2017-10-27T12:29:06.551Z,93.10
2017-10-27T12:30:08.800Z,93.00
2017-10-27T12:31:10.320Z,93.00
2017-10-27T12:32:11.747Z,92.90
2017-10-27T12:33:13.183Z,93.10
2017-10-27T12:34:15.464Z,93.20
2017-10-27T12:35:16.695Z,93.10
2017-10-27T12:36:17.626Z,93.10
2017-10-27T12:37:19.329Z,93.10
2017-10-27T12:38:21.019Z,93.20
2017-10-27T12:39:21.946Z,93.20
2017-10-27T12:40:22.920Z,93.10
2017-10-27T12:41:24.615Z,93.30
2017-10-27T12:42:26.359Z,92.90
2017-10-27T12:43:27.274Z,92.90
2017-10-27T12:44:28.223Z,92.70
2017-10-27T12:45:30.077Z,92.60
2017-10-27T12:46:31.002Z,92.60
2017-10-27T12:47:32.691Z,92.40
2017-10-27T12:48:33.677Z,92.20
2017-10-27T12:49:34.647Z,92.20
2017-10-27T12:50:35.599Z,92.40
2017-10-27T12:51:36.524Z,92.30
2017-10-27T12:52:37.516Z,92.50
2017-10-27T12:53:38.523Z,92.60
2017-10-27T12:54:39.463Z,92.60
2017-10-27T12:55:40.399Z,92.30
2017-10-27T12:56:41.405Z,92.40
2017-10-27T12:57:42.354Z,92.50
2017-10-27T12:58:43.283Z,92.40
2017-10-27T12:59:44.193Z,92.50
2017-10-27T13:00:45.936Z,93.20
2017-10-27T13:01:46.910Z,93.20
2017-10-27T13:02:47.965Z,92.60
2017-10-27T13:03:48.935Z,92.50
2017-10-27T13:04:49.941Z,92.20
2017-10-27T13:05:50.873Z,92.20
2017-10-27T13:06:51.886Z,92.30
2017-10-27T13:07:53.103Z,92.40
2017-10-27T13:08:54.031Z,92.50
2017-10-27T13:09:55.763Z,92.50
2017-10-27T13:10:56.728Z,92.30
2017-10-27T13:11:58.421Z,92.60
2017-10-27T13:13:00.127Z,92.70
2017-10-27T13:14:01.077Z,92.70
2017-10-27T13:15:02.055Z,92.00
2017-10-27T13:16:03.052Z,91.90
2017-10-27T13:17:04.018Z,92.10
2017-10-27T13:18:04.960Z,91.90
2017-10-27T13:19:05.976Z,92.00
2017-10-27T13:20:06.995Z,92.30
2017-10-27T13:21:07.934Z,92.80
2017-10-27T13:22:08.953Z,93.20
2017-10-27T13:23:09.890Z,93.40
2017-10-27T13:24:10.826Z,93.50
2017-10-27T13:25:12.523Z,94.00
2017-10-27T13:26:13.485Z,94.00
2017-10-27T13:27:14.442Z,93.20
2017-10-27T13:28:15.714Z,93.20